sensor_id;sensor_type;location;lat;lon;timestamp;P1;durP1;ratioP1;P2;durP2;ratioP2
17251;SDS011;8742;51.716;8.790;2022-07-01T00:00:19;12.03;;;6.03;;
17251;SDS011;8742;51.716;8.790;2022-07-01T00:02:48;12.67;;;6.47;;
17251;SDS011;8742;51.716;8.790;2022-07-01T00:05:15;7.47;;;5.77;;
17251;SDS011;8742;51.716;8.790;2022-07-01T00:07:42;7.00;;;4.83;;
17251;SDS011;8742;51.716;8.790;2022-07-01T00:10:09;17.47;;;6.60;;
17251;SDS011;8742;51.716;8.790;2022-07-01T00:12:36;9.30;;;6.17;;
17251;SDS011;8742;51.716;8.790;2022-07-01T00:15:03;9.10;;;6.00;;
17251;SDS011;8742;51.716;8.790;2022-07-01T00:17:31;7.70;;;5.83;;
17251;SDS011;8742;51.716;8.790;2022-07-01T00:19:59;8.60;;;5.53;;
17251;SDS011;8742;51.716;8.790;2022-07-01T00:22:26;7.60;;;6.07;;
17251;SDS011;8742;51.716;8.790;2022-07-01T00:24:53;9.90;;;6.17;;
17251;SDS011;8742;51.716;8.790;2022-07-01T00:27:20;10.67;;;6.57;;
17251;SDS011;8742;51.716;8.790;2022-07-01T00:29:48;8.13;;;6.13;;
17251;SDS011;8742;51.716;8.790;2022-07-01T00:32:15;7.30;;;6.10;;
17251;SDS011;8742;51.716;8.790;2022-07-01T00:34:42;10.63;;;6.43;;
17251;SDS011;8742;51.716;8.790;2022-07-01T00:37:10;14.87;;;7.50;;
17251;SDS011;8742;51.716;8.790;2022-07-01T00:39:37;11.37;;;7.97;;
17251;SDS011;8742;51.716;8.790;2022-07-01T00:42:04;12.00;;;6.93;;
17251;SDS011;8742;51.716;8.790;2022-07-01T00:44:31;10.50;;;7.90;;
17251;SDS011;8742;51.716;8.790;2022-07-01T00:46:59;9.97;;;8.03;;
17251;SDS011;8742;51.716;8.790;2022-07-01T00:49:28;13.97;;;8.97;;
17251;SDS011;8742;51.716;8.790;2022-07-01T00:51:55;11.37;;;8.83;;
17251;SDS011;8742;51.716;8.790;2022-07-01T00:54:24;15.00;;;9.57;;
17251;SDS011;8742;51.716;8.790;2022-07-01T00:56:52;12.70;;;9.13;;
17251;SDS011;8742;51.716;8.790;2022-07-01T00:59:19;21.87;;;12.53;;
17251;SDS011;8742;51.716;8.790;2022-07-01T01:01:47;20.27;;;14.63;;
17251;SDS011;8742;51.716;8.790;2022-07-01T01:04:14;25.10;;;15.80;;
17251;SDS011;8742;51.716;8.790;2022-07-01T01:06:41;18.73;;;14.37;;
17251;SDS011;8742;51.716;8.790;2022-07-01T01:09:08;20.97;;;13.33;;
17251;SDS011;8742;51.716;8.790;2022-07-01T01:11:36;18.50;;;12.53;;
17251;SDS011;8742;51.716;8.790;2022-07-01T01:14:03;20.53;;;12.20;;
17251;SDS011;8742;51.716;8.790;2022-07-01T01:16:30;17.73;;;12.07;;
17251;SDS011;8742;51.716;8.790;2022-07-01T01:18:59;18.07;;;11.30;;
17251;SDS011;8742;51.716;8.790;2022-07-01T01:21:28;13.97;;;9.03;;
17251;SDS011;8742;51.716;8.790;2022-07-01T01:23:56;15.17;;;9.40;;
17251;SDS011;8742;51.716;8.790;2022-07-01T01:26:24;15.07;;;7.93;;
17251;SDS011;8742;51.716;8.790;2022-07-01T01:28:52;11.67;;;6.37;;
17251;SDS011;8742;51.716;8.790;2022-07-01T01:31:26;8.13;;;5.73;;
17251;SDS011;8742;51.716;8.790;2022-07-01T01:33:55;7.60;;;5.50;;
17251;SDS011;8742;51.716;8.790;2022-07-01T01:36:22;7.23;;;5.27;;
17251;SDS011;8742;51.716;8.790;2022-07-01T01:38:51;7.87;;;5.60;;
17251;SDS011;8742;51.716;8.790;2022-07-01T01:41:18;7.80;;;5.47;;
17251;SDS011;8742;51.716;8.790;2022-07-01T01:43:45;9.23;;;5.63;;
17251;SDS011;8742;51.716;8.790;2022-07-01T01:46:12;7.47;;;5.40;;
17251;SDS011;8742;51.716;8.790;2022-07-01T01:48:39;8.77;;;5.70;;
17251;SDS011;8742;51.716;8.790;2022-07-01T01:51:06;8.90;;;5.97;;
17251;SDS011;8742;51.716;8.790;2022-07-01T01:53:33;10.13;;;6.23;;
17251;SDS011;8742;51.716;8.790;2022-07-01T01:56:01;7.73;;;5.80;;
17251;SDS011;8742;51.716;8.790;2022-07-01T01:58:28;6.93;;;5.53;;
17251;SDS011;8742;51.716;8.790;2022-07-01T02:00:55;9.30;;;5.83;;
17251;SDS011;8742;51.716;8.790;2022-07-01T02:03:22;5.80;;;5.20;;
17251;SDS011;8742;51.716;8.790;2022-07-01T02:05:49;10.07;;;6.60;;
17251;SDS011;8742;51.716;8.790;2022-07-01T02:08:16;8.03;;;6.50;;
17251;SDS011;8742;51.716;8.790;2022-07-01T02:10:43;9.47;;;6.60;;
17251;SDS011;8742;51.716;8.790;2022-07-01T02:13:11;9.53;;;7.10;;
17251;SDS011;8742;51.716;8.790;2022-07-01T02:15:38;8.00;;;6.60;;
17251;SDS011;8742;51.716;8.790;2022-07-01T02:18:05;11.40;;;7.47;;
17251;SDS011;8742;51.716;8.790;2022-07-01T02:20:32;11.63;;;7.07;;
17251;SDS011;8742;51.716;8.790;2022-07-01T02:22:59;10.83;;;7.43;;
17251;SDS011;8742;51.716;8.790;2022-07-01T02:25:26;11.07;;;7.83;;
17251;SDS011;8742;51.716;8.790;2022-07-01T02:27:53;9.97;;;7.53;;
17251;SDS011;8742;51.716;8.790;2022-07-01T02:30:21;11.33;;;7.97;;
17251;SDS011;8742;51.716;8.790;2022-07-01T02:32:48;13.03;;;8.40;;
17251;SDS011;8742;51.716;8.790;2022-07-01T02:35:15;11.23;;;7.47;;
17251;SDS011;8742;51.716;8.790;2022-07-01T02:37:42;8.90;;;7.33;;
17251;SDS011;8742;51.716;8.790;2022-07-01T02:40:09;12.07;;;7.30;;
17251;SDS011;8742;51.716;8.790;2022-07-01T02:42:38;15.30;;;8.30;;
17251;SDS011;8742;51.716;8.790;2022-07-01T02:45:05;11.60;;;7.80;;
17251;SDS011;8742;51.716;8.790;2022-07-01T02:47:35;9.67;;;7.97;;
17251;SDS011;8742;51.716;8.790;2022-07-01T02:50:04;16.83;;;8.53;;
17251;SDS011;8742;51.716;8.790;2022-07-01T02:52:32;17.23;;;8.90;;
17251;SDS011;8742;51.716;8.790;2022-07-01T02:55:00;13.17;;;9.13;;
17251;SDS011;8742;51.716;8.790;2022-07-01T02:57:27;19.10;;;9.30;;
17251;SDS011;8742;51.716;8.790;2022-07-01T02:59:54;12.13;;;9.40;;
17251;SDS011;8742;51.716;8.790;2022-07-01T03:02:21;16.57;;;12.13;;
17251;SDS011;8742;51.716;8.790;2022-07-01T03:04:50;15.07;;;12.57;;
17251;SDS011;8742;51.716;8.790;2022-07-01T03:07:18;19.87;;;13.17;;
17251;SDS011;8742;51.716;8.790;2022-07-01T03:09:45;23.07;;;16.00;;
17251;SDS011;8742;51.716;8.790;2022-07-01T03:12:13;32.90;;;14.17;;
17251;SDS011;8742;51.716;8.790;2022-07-01T03:14:52;22.97;;;15.80;;
17251;SDS011;8742;51.716;8.790;2022-07-01T03:17:20;25.03;;;15.67;;
17251;SDS011;8742;51.716;8.790;2022-07-01T03:19:47;22.17;;;16.07;;
17251;SDS011;8742;51.716;8.790;2022-07-01T03:22:17;26.77;;;17.73;;
17251;SDS011;8742;51.716;8.790;2022-07-01T03:24:45;27.87;;;19.23;;
17251;SDS011;8742;51.716;8.790;2022-07-01T03:27:11;31.67;;;18.50;;
17251;SDS011;8742;51.716;8.790;2022-07-01T03:29:38;25.80;;;18.00;;
17251;SDS011;8742;51.716;8.790;2022-07-01T03:32:06;28.60;;;18.33;;
17251;SDS011;8742;51.716;8.790;2022-07-01T03:34:34;32.87;;;18.67;;
17251;SDS011;8742;51.716;8.790;2022-07-01T03:37:02;28.63;;;18.13;;
17251;SDS011;8742;51.716;8.790;2022-07-01T03:39:30;27.93;;;19.33;;
17251;SDS011;8742;51.716;8.790;2022-07-01T03:41:57;27.23;;;18.13;;
17251;SDS011;8742;51.716;8.790;2022-07-01T03:44:24;30.07;;;18.80;;
17251;SDS011;8742;51.716;8.790;2022-07-01T03:46:50;31.13;;;18.23;;
17251;SDS011;8742;51.716;8.790;2022-07-01T03:49:17;24.67;;;17.60;;
17251;SDS011;8742;51.716;8.790;2022-07-01T03:51:44;26.47;;;16.20;;
17251;SDS011;8742;51.716;8.790;2022-07-01T03:54:12;23.60;;;16.63;;
17251;SDS011;8742;51.716;8.790;2022-07-01T03:56:58;23.70;;;16.70;;
17251;SDS011;8742;51.716;8.790;2022-07-01T03:59:26;24.93;;;16.20;;
17251;SDS011;8742;51.716;8.790;2022-07-01T04:01:53;21.23;;;15.53;;
17251;SDS011;8742;51.716;8.790;2022-07-01T04:04:20;24.07;;;15.97;;
17251;SDS011;8742;51.716;8.790;2022-07-01T04:06:48;24.90;;;15.17;;
17251;SDS011;8742;51.716;8.790;2022-07-01T04:09:17;21.67;;;15.60;;
17251;SDS011;8742;51.716;8.790;2022-07-01T04:11:44;20.93;;;15.87;;
17251;SDS011;8742;51.716;8.790;2022-07-01T04:14:12;19.83;;;13.93;;
17251;SDS011;8742;51.716;8.790;2022-07-01T04:16:39;17.80;;;12.60;;
17251;SDS011;8742;51.716;8.790;2022-07-01T04:19:07;17.97;;;12.50;;
17251;SDS011;8742;51.716;8.790;2022-07-01T04:21:35;20.73;;;13.30;;
17251;SDS011;8742;51.716;8.790;2022-07-01T04:24:21;18.60;;;13.07;;
17251;SDS011;8742;51.716;8.790;2022-07-01T04:26:49;22.40;;;14.07;;
17251;SDS011;8742;51.716;8.790;2022-07-01T04:29:17;23.43;;;13.63;;
17251;SDS011;8742;51.716;8.790;2022-07-01T04:31:44;18.33;;;13.53;;
17251;SDS011;8742;51.716;8.790;2022-07-01T04:34:11;22.10;;;14.07;;
17251;SDS011;8742;51.716;8.790;2022-07-01T04:36:38;20.20;;;14.67;;
17251;SDS011;8742;51.716;8.790;2022-07-01T04:39:06;19.60;;;14.23;;
17251;SDS011;8742;51.716;8.790;2022-07-01T04:41:34;18.20;;;13.47;;
17251;SDS011;8742;51.716;8.790;2022-07-01T04:44:18;21.30;;;14.73;;
17251;SDS011;8742;51.716;8.790;2022-07-01T04:46:46;25.70;;;15.57;;
17251;SDS011;8742;51.716;8.790;2022-07-01T04:49:13;25.27;;;14.53;;
17251;SDS011;8742;51.716;8.790;2022-07-01T04:51:40;21.37;;;15.37;;
17251;SDS011;8742;51.716;8.790;2022-07-01T04:54:08;23.13;;;14.53;;
17251;SDS011;8742;51.716;8.790;2022-07-01T04:56:37;21.33;;;14.23;;
17251;SDS011;8742;51.716;8.790;2022-07-01T04:59:04;23.20;;;15.43;;
17251;SDS011;8742;51.716;8.790;2022-07-01T05:01:31;25.57;;;16.00;;
17251;SDS011;8742;51.716;8.790;2022-07-01T05:03:58;24.67;;;15.73;;
17251;SDS011;8742;51.716;8.790;2022-07-01T05:06:25;20.97;;;15.20;;
17251;SDS011;8742;51.716;8.790;2022-07-01T05:08:52;30.40;;;16.00;;
17251;SDS011;8742;51.716;8.790;2022-07-01T05:11:20;31.67;;;15.50;;
17251;SDS011;8742;51.716;8.790;2022-07-01T05:13:48;26.07;;;16.23;;
17251;SDS011;8742;51.716;8.790;2022-07-01T05:16:15;24.93;;;16.00;;
17251;SDS011;8742;51.716;8.790;2022-07-01T05:18:43;25.90;;;16.70;;
17251;SDS011;8742;51.716;8.790;2022-07-01T05:21:28;23.13;;;16.00;;
17251;SDS011;8742;51.716;8.790;2022-07-01T05:24:12;28.23;;;15.80;;
17251;SDS011;8742;51.716;8.790;2022-07-01T05:26:39;26.17;;;15.97;;
17251;SDS011;8742;51.716;8.790;2022-07-01T05:29:07;24.73;;;15.17;;
17251;SDS011;8742;51.716;8.790;2022-07-01T05:31:34;23.93;;;14.23;;
17251;SDS011;8742;51.716;8.790;2022-07-01T05:34:01;25.17;;;14.80;;
17251;SDS011;8742;51.716;8.790;2022-07-01T05:36:28;19.17;;;14.23;;
17251;SDS011;8742;51.716;8.790;2022-07-01T05:38:55;23.27;;;14.10;;
17251;SDS011;8742;51.716;8.790;2022-07-01T05:41:22;20.87;;;13.93;;
17251;SDS011;8742;51.716;8.790;2022-07-01T05:43:49;22.43;;;14.77;;
17251;SDS011;8742;51.716;8.790;2022-07-01T05:46:17;18.50;;;12.53;;
17251;SDS011;8742;51.716;8.790;2022-07-01T05:48:44;20.37;;;13.97;;
17251;SDS011;8742;51.716;8.790;2022-07-01T05:51:11;20.37;;;13.47;;
17251;SDS011;8742;51.716;8.790;2022-07-01T05:53:38;22.60;;;13.03;;
17251;SDS011;8742;51.716;8.790;2022-07-01T05:56:04;21.87;;;12.17;;
17251;SDS011;8742;51.716;8.790;2022-07-01T05:58:31;21.27;;;10.90;;
17251;SDS011;8742;51.716;8.790;2022-07-01T06:00:58;19.60;;;11.90;;
17251;SDS011;8742;51.716;8.790;2022-07-01T06:03:26;13.47;;;11.03;;
17251;SDS011;8742;51.716;8.790;2022-07-01T06:05:53;14.50;;;10.57;;
17251;SDS011;8742;51.716;8.790;2022-07-01T06:08:20;14.00;;;9.57;;
17251;SDS011;8742;51.716;8.790;2022-07-01T06:10:47;11.50;;;9.40;;
17251;SDS011;8742;51.716;8.790;2022-07-01T06:13:14;13.47;;;9.10;;
17251;SDS011;8742;51.716;8.790;2022-07-01T06:15:41;14.57;;;9.73;;
17251;SDS011;8742;51.716;8.790;2022-07-01T06:18:08;13.97;;;8.50;;
17251;SDS011;8742;51.716;8.790;2022-07-01T06:20:36;13.10;;;8.80;;
17251;SDS011;8742;51.716;8.790;2022-07-01T06:23:03;16.20;;;9.70;;
17251;SDS011;8742;51.716;8.790;2022-07-01T06:25:30;12.53;;;8.97;;
17251;SDS011;8742;51.716;8.790;2022-07-01T06:27:57;15.37;;;8.83;;
17251;SDS011;8742;51.716;8.790;2022-07-01T06:30:24;13.77;;;9.27;;
17251;SDS011;8742;51.716;8.790;2022-07-01T06:32:51;16.33;;;8.90;;
17251;SDS011;8742;51.716;8.790;2022-07-01T06:35:18;17.83;;;9.30;;
17251;SDS011;8742;51.716;8.790;2022-07-01T06:37:47;16.73;;;9.10;;
17251;SDS011;8742;51.716;8.790;2022-07-01T06:40:14;11.50;;;8.10;;
17251;SDS011;8742;51.716;8.790;2022-07-01T06:42:40;19.67;;;8.53;;
17251;SDS011;8742;51.716;8.790;2022-07-01T06:45:08;10.30;;;7.30;;
17251;SDS011;8742;51.716;8.790;2022-07-01T06:47:36;14.90;;;8.60;;
17251;SDS011;8742;51.716;8.790;2022-07-01T06:50:03;16.43;;;7.57;;
17251;SDS011;8742;51.716;8.790;2022-07-01T06:52:31;12.10;;;7.07;;
17251;SDS011;8742;51.716;8.790;2022-07-01T06:54:59;8.47;;;6.67;;
17251;SDS011;8742;51.716;8.790;2022-07-01T06:57:27;9.90;;;6.30;;
17251;SDS011;8742;51.716;8.790;2022-07-01T06:59:54;10.30;;;6.67;;
17251;SDS011;8742;51.716;8.790;2022-07-01T07:02:21;10.43;;;6.33;;
17251;SDS011;8742;51.716;8.790;2022-07-01T07:04:48;9.07;;;6.30;;
17251;SDS011;8742;51.716;8.790;2022-07-01T07:07:15;13.13;;;7.10;;
17251;SDS011;8742;51.716;8.790;2022-07-01T07:09:42;9.07;;;6.20;;
17251;SDS011;8742;51.716;8.790;2022-07-01T07:12:10;9.73;;;6.57;;
17251;SDS011;8742;51.716;8.790;2022-07-01T07:14:37;11.60;;;6.23;;
17251;SDS011;8742;51.716;8.790;2022-07-01T07:17:04;11.03;;;7.20;;
17251;SDS011;8742;51.716;8.790;2022-07-01T07:19:31;9.80;;;6.23;;
17251;SDS011;8742;51.716;8.790;2022-07-01T07:21:58;10.60;;;7.13;;
17251;SDS011;8742;51.716;8.790;2022-07-01T07:24:25;9.30;;;6.83;;
17251;SDS011;8742;51.716;8.790;2022-07-01T07:26:51;14.17;;;7.83;;
17251;SDS011;8742;51.716;8.790;2022-07-01T07:29:20;10.90;;;6.60;;
17251;SDS011;8742;51.716;8.790;2022-07-01T07:31:46;10.43;;;7.00;;
17251;SDS011;8742;51.716;8.790;2022-07-01T07:34:13;10.20;;;7.13;;
17251;SDS011;8742;51.716;8.790;2022-07-01T07:36:40;12.77;;;7.70;;
17251;SDS011;8742;51.716;8.790;2022-07-01T07:39:07;11.50;;;7.53;;
17251;SDS011;8742;51.716;8.790;2022-07-01T07:41:34;13.43;;;7.37;;
17251;SDS011;8742;51.716;8.790;2022-07-01T07:44:01;14.90;;;7.77;;
17251;SDS011;8742;51.716;8.790;2022-07-01T07:46:29;10.37;;;7.30;;
17251;SDS011;8742;51.716;8.790;2022-07-01T07:48:56;12.70;;;7.30;;
17251;SDS011;8742;51.716;8.790;2022-07-01T07:51:23;10.80;;;6.73;;
17251;SDS011;8742;51.716;8.790;2022-07-01T07:53:51;9.73;;;7.20;;
17251;SDS011;8742;51.716;8.790;2022-07-01T07:56:18;16.27;;;7.53;;
17251;SDS011;8742;51.716;8.790;2022-07-01T07:58:45;12.77;;;6.83;;
17251;SDS011;8742;51.716;8.790;2022-07-01T08:01:12;9.80;;;7.30;;
17251;SDS011;8742;51.716;8.790;2022-07-01T08:03:41;12.33;;;6.87;;
17251;SDS011;8742;51.716;8.790;2022-07-01T08:06:07;9.23;;;6.93;;
17251;SDS011;8742;51.716;8.790;2022-07-01T08:08:34;13.27;;;6.97;;
17251;SDS011;8742;51.716;8.790;2022-07-01T08:11:01;9.17;;;6.73;;
17251;SDS011;8742;51.716;8.790;2022-07-01T08:13:28;8.70;;;6.53;;
17251;SDS011;8742;51.716;8.790;2022-07-01T08:15:55;10.07;;;6.83;;
17251;SDS011;8742;51.716;8.790;2022-07-01T08:18:22;10.33;;;6.47;;
17251;SDS011;8742;51.716;8.790;2022-07-01T08:20:51;11.33;;;6.97;;
17251;SDS011;8742;51.716;8.790;2022-07-01T08:23:18;8.87;;;5.90;;
17251;SDS011;8742;51.716;8.790;2022-07-01T08:25:46;7.67;;;6.37;;
17251;SDS011;8742;51.716;8.790;2022-07-01T08:28:13;8.57;;;6.23;;
17251;SDS011;8742;51.716;8.790;2022-07-01T08:30:40;7.43;;;5.90;;
17251;SDS011;8742;51.716;8.790;2022-07-01T08:33:07;14.73;;;6.47;;
17251;SDS011;8742;51.716;8.790;2022-07-01T08:35:34;8.80;;;6.40;;
17251;SDS011;8742;51.716;8.790;2022-07-01T08:38:02;8.03;;;5.80;;
17251;SDS011;8742;51.716;8.790;2022-07-01T08:40:30;20.63;;;6.33;;
17251;SDS011;8742;51.716;8.790;2022-07-01T08:42:58;13.07;;;6.17;;
17251;SDS011;8742;51.716;8.790;2022-07-01T08:45:26;16.40;;;6.43;;
17251;SDS011;8742;51.716;8.790;2022-07-01T08:47:56;8.13;;;6.47;;
17251;SDS011;8742;51.716;8.790;2022-07-01T08:50:26;12.43;;;6.10;;
17251;SDS011;8742;51.716;8.790;2022-07-01T08:52:53;8.83;;;6.30;;
17251;SDS011;8742;51.716;8.790;2022-07-01T08:55:22;9.53;;;6.07;;
17251;SDS011;8742;51.716;8.790;2022-07-01T08:57:49;12.73;;;6.50;;
17251;SDS011;8742;51.716;8.790;2022-07-01T09:00:16;10.40;;;6.03;;
17251;SDS011;8742;51.716;8.790;2022-07-01T09:02:54;11.03;;;6.00;;
17251;SDS011;8742;51.716;8.790;2022-07-01T09:05:22;10.33;;;6.30;;
17251;SDS011;8742;51.716;8.790;2022-07-01T09:07:54;12.97;;;6.97;;
17251;SDS011;8742;51.716;8.790;2022-07-01T09:10:24;11.40;;;7.00;;
17251;SDS011;8742;51.716;8.790;2022-07-01T09:12:51;12.90;;;7.13;;
17251;SDS011;8742;51.716;8.790;2022-07-01T09:15:22;10.47;;;6.33;;
17251;SDS011;8742;51.716;8.790;2022-07-01T09:17:51;10.63;;;6.47;;
17251;SDS011;8742;51.716;8.790;2022-07-01T09:20:23;9.80;;;6.90;;
17251;SDS011;8742;51.716;8.790;2022-07-01T09:22:59;12.83;;;5.57;;
17251;SDS011;8742;51.716;8.790;2022-07-01T09:25:32;10.33;;;5.43;;
17251;SDS011;8742;51.716;8.790;2022-07-01T09:28:05;9.60;;;6.00;;
17251;SDS011;8742;51.716;8.790;2022-07-01T09:30:34;5.57;;;4.77;;
17251;SDS011;8742;51.716;8.790;2022-07-01T09:33:05;7.80;;;4.87;;
17251;SDS011;8742;51.716;8.790;2022-07-01T09:35:33;9.27;;;4.77;;
17251;SDS011;8742;51.716;8.790;2022-07-01T09:38:01;12.33;;;4.73;;
17251;SDS011;8742;51.716;8.790;2022-07-01T09:43:15;7.90;;;4.53;;
17251;SDS011;8742;51.716;8.790;2022-07-01T09:45:56;6.07;;;4.27;;
17251;SDS011;8742;51.716;8.790;2022-07-01T09:48:25;8.60;;;3.90;;
17251;SDS011;8742;51.716;8.790;2022-07-01T09:50:53;7.07;;;4.27;;
17251;SDS011;8742;51.716;8.790;2022-07-01T09:53:21;7.47;;;3.90;;
17251;SDS011;8742;51.716;8.790;2022-07-01T09:55:49;6.67;;;3.50;;
17251;SDS011;8742;51.716;8.790;2022-07-01T09:58:16;3.87;;;3.23;;
17251;SDS011;8742;51.716;8.790;2022-07-01T10:00:44;4.73;;;2.67;;
17251;SDS011;8742;51.716;8.790;2022-07-01T10:03:11;6.40;;;2.97;;
17251;SDS011;8742;51.716;8.790;2022-07-01T10:05:42;7.87;;;3.30;;
17251;SDS011;8742;51.716;8.790;2022-07-01T10:08:22;7.63;;;3.20;;
17251;SDS011;8742;51.716;8.790;2022-07-01T10:10:55;8.23;;;3.00;;
17251;SDS011;8742;51.716;8.790;2022-07-01T10:13:31;12.03;;;3.97;;
17251;SDS011;8742;51.716;8.790;2022-07-01T10:16:01;8.13;;;3.07;;
17251;SDS011;8742;51.716;8.790;2022-07-01T10:18:29;4.33;;;3.40;;
17251;SDS011;8742;51.716;8.790;2022-07-01T10:26:02;3.93;;;3.00;;
17251;SDS011;8742;51.716;8.790;2022-07-01T10:28:40;3.40;;;2.60;;
17251;SDS011;8742;51.716;8.790;2022-07-01T10:31:09;6.50;;;3.10;;
17251;SDS011;8742;51.716;8.790;2022-07-01T10:33:42;5.53;;;3.40;;
17251;SDS011;8742;51.716;8.790;2022-07-01T10:36:11;5.67;;;3.50;;
17251;SDS011;8742;51.716;8.790;2022-07-01T10:41:58;9.63;;;4.10;;
17251;SDS011;8742;51.716;8.790;2022-07-01T10:44:30;6.47;;;3.77;;
17251;SDS011;8742;51.716;8.790;2022-07-01T10:47:02;7.30;;;3.90;;
17251;SDS011;8742;51.716;8.790;2022-07-01T10:52:31;5.27;;;3.80;;
17251;SDS011;8742;51.716;8.790;2022-07-01T10:54:59;4.97;;;4.03;;
17251;SDS011;8742;51.716;8.790;2022-07-01T10:57:35;6.83;;;4.43;;
17251;SDS011;8742;51.716;8.790;2022-07-01T11:03:11;8.77;;;3.50;;
17251;SDS011;8742;51.716;8.790;2022-07-01T11:05:49;4.30;;;2.93;;
17251;SDS011;8742;51.716;8.790;2022-07-01T11:08:18;5.50;;;3.70;;
17251;SDS011;8742;51.716;8.790;2022-07-01T11:10:48;4.60;;;3.40;;
17251;SDS011;8742;51.716;8.790;2022-07-01T11:13:18;5.13;;;3.50;;
17251;SDS011;8742;51.716;8.790;2022-07-01T11:15:46;5.30;;;3.20;;
17251;SDS011;8742;51.716;8.790;2022-07-01T11:18:14;5.27;;;2.97;;
17251;SDS011;8742;51.716;8.790;2022-07-01T11:20:42;11.03;;;3.20;;
17251;SDS011;8742;51.716;8.790;2022-07-01T11:23:09;4.30;;;3.00;;
17251;SDS011;8742;51.716;8.790;2022-07-01T11:25:36;4.20;;;2.50;;
17251;SDS011;8742;51.716;8.790;2022-07-01T11:28:03;3.50;;;2.53;;
17251;SDS011;8742;51.716;8.790;2022-07-01T11:30:31;9.37;;;3.03;;
17251;SDS011;8742;51.716;8.790;2022-07-01T11:32:58;2.67;;;2.43;;
17251;SDS011;8742;51.716;8.790;2022-07-01T11:35:27;7.10;;;2.30;;
17251;SDS011;8742;51.716;8.790;2022-07-01T11:38:13;4.43;;;2.13;;
17251;SDS011;8742;51.716;8.790;2022-07-01T11:40:59;6.30;;;2.73;;
17251;SDS011;8742;51.716;8.790;2022-07-01T11:43:28;13.63;;;4.33;;
17251;SDS011;8742;51.716;8.790;2022-07-01T11:45:58;4.43;;;2.63;;
17251;SDS011;8742;51.716;8.790;2022-07-01T11:48:30;3.33;;;2.10;;
17251;SDS011;8742;51.716;8.790;2022-07-01T11:51:00;11.20;;;3.87;;
17251;SDS011;8742;51.716;8.790;2022-07-01T11:53:31;5.17;;;2.77;;
17251;SDS011;8742;51.716;8.790;2022-07-01T11:55:58;3.63;;;2.73;;
17251;SDS011;8742;51.716;8.790;2022-07-01T11:58:39;2.93;;;2.63;;
17251;SDS011;8742;51.716;8.790;2022-07-01T12:01:11;3.40;;;2.43;;
17251;SDS011;8742;51.716;8.790;2022-07-01T12:03:45;6.57;;;2.93;;
17251;SDS011;8742;51.716;8.790;2022-07-01T12:06:13;3.60;;;2.40;;
17251;SDS011;8742;51.716;8.790;2022-07-01T12:08:42;4.97;;;2.67;;
17251;SDS011;8742;51.716;8.790;2022-07-01T12:11:10;4.23;;;2.40;;
17251;SDS011;8742;51.716;8.790;2022-07-01T12:13:37;3.63;;;2.70;;
17251;SDS011;8742;51.716;8.790;2022-07-01T12:16:05;3.87;;;2.57;;
17251;SDS011;8742;51.716;8.790;2022-07-01T12:18:34;4.60;;;2.63;;
17251;SDS011;8742;51.716;8.790;2022-07-01T12:21:01;4.73;;;2.50;;
17251;SDS011;8742;51.716;8.790;2022-07-01T12:23:28;6.53;;;2.90;;
17251;SDS011;8742;51.716;8.790;2022-07-01T12:25:57;3.93;;;2.40;;
17251;SDS011;8742;51.716;8.790;2022-07-01T12:28:28;4.70;;;2.40;;
17251;SDS011;8742;51.716;8.790;2022-07-01T12:31:00;7.17;;;2.60;;
17251;SDS011;8742;51.716;8.790;2022-07-01T12:33:28;5.70;;;2.40;;
17251;SDS011;8742;51.716;8.790;2022-07-01T12:35:56;4.33;;;2.60;;
17251;SDS011;8742;51.716;8.790;2022-07-01T12:38:23;9.70;;;2.90;;
17251;SDS011;8742;51.716;8.790;2022-07-01T12:40:50;4.10;;;2.50;;
17251;SDS011;8742;51.716;8.790;2022-07-01T12:43:27;3.27;;;2.37;;
17251;SDS011;8742;51.716;8.790;2022-07-01T12:45:56;3.93;;;2.10;;
17251;SDS011;8742;51.716;8.790;2022-07-01T12:48:24;5.43;;;2.53;;
17251;SDS011;8742;51.716;8.790;2022-07-01T12:50:52;4.97;;;2.30;;
17251;SDS011;8742;51.716;8.790;2022-07-01T12:53:21;5.43;;;2.70;;
17251;SDS011;8742;51.716;8.790;2022-07-01T12:55:50;3.17;;;1.87;;
17251;SDS011;8742;51.716;8.790;2022-07-01T12:58:19;3.83;;;2.27;;
17251;SDS011;8742;51.716;8.790;2022-07-01T13:00:48;4.93;;;2.10;;
17251;SDS011;8742;51.716;8.790;2022-07-01T13:03:18;3.60;;;2.10;;
17251;SDS011;8742;51.716;8.790;2022-07-01T13:05:47;8.67;;;1.97;;
17251;SDS011;8742;51.716;8.790;2022-07-01T13:08:15;5.00;;;2.33;;
17251;SDS011;8742;51.716;8.790;2022-07-01T13:10:44;4.63;;;2.30;;
17251;SDS011;8742;51.716;8.790;2022-07-01T13:13:12;2.97;;;1.90;;
17251;SDS011;8742;51.716;8.790;2022-07-01T13:15:40;2.90;;;1.77;;
17251;SDS011;8742;51.716;8.790;2022-07-01T13:18:06;2.67;;;1.83;;
17251;SDS011;8742;51.716;8.790;2022-07-01T13:20:34;2.67;;;1.80;;
17251;SDS011;8742;51.716;8.790;2022-07-01T13:23:03;6.03;;;2.17;;
17251;SDS011;8742;51.716;8.790;2022-07-01T13:25:30;3.50;;;1.87;;
17251;SDS011;8742;51.716;8.790;2022-07-01T13:27:59;2.87;;;1.90;;
17251;SDS011;8742;51.716;8.790;2022-07-01T13:30:26;4.83;;;1.50;;
17251;SDS011;8742;51.716;8.790;2022-07-01T13:32:53;6.63;;;1.80;;
17251;SDS011;8742;51.716;8.790;2022-07-01T13:35:20;2.80;;;1.77;;
17251;SDS011;8742;51.716;8.790;2022-07-01T13:37:48;4.67;;;1.90;;
17251;SDS011;8742;51.716;8.790;2022-07-01T13:40:16;2.20;;;1.70;;
17251;SDS011;8742;51.716;8.790;2022-07-01T13:42:43;2.23;;;1.63;;
17251;SDS011;8742;51.716;8.790;2022-07-01T13:45:11;4.37;;;1.77;;
17251;SDS011;8742;51.716;8.790;2022-07-01T13:47:39;3.87;;;1.70;;
17251;SDS011;8742;51.716;8.790;2022-07-01T13:50:06;6.17;;;1.90;;
17251;SDS011;8742;51.716;8.790;2022-07-01T13:52:35;4.63;;;1.53;;
17251;SDS011;8742;51.716;8.790;2022-07-01T13:55:02;2.60;;;1.70;;
17251;SDS011;8742;51.716;8.790;2022-07-01T13:57:30;3.73;;;2.30;;
17251;SDS011;8742;51.716;8.790;2022-07-01T13:59:57;3.87;;;1.87;;
17251;SDS011;8742;51.716;8.790;2022-07-01T14:02:26;3.63;;;1.87;;
17251;SDS011;8742;51.716;8.790;2022-07-01T14:04:53;2.37;;;2.00;;
17251;SDS011;8742;51.716;8.790;2022-07-01T14:07:20;8.23;;;1.97;;
17251;SDS011;8742;51.716;8.790;2022-07-01T14:09:46;4.93;;;2.20;;
17251;SDS011;8742;51.716;8.790;2022-07-01T14:12:13;2.53;;;2.00;;
17251;SDS011;8742;51.716;8.790;2022-07-01T14:14:41;5.73;;;2.03;;
17251;SDS011;8742;51.716;8.790;2022-07-01T14:17:08;4.73;;;2.00;;
17251;SDS011;8742;51.716;8.790;2022-07-01T14:19:37;2.03;;;1.90;;
17251;SDS011;8742;51.716;8.790;2022-07-01T14:22:04;5.90;;;1.97;;
17251;SDS011;8742;51.716;8.790;2022-07-01T14:24:31;2.97;;;1.73;;
17251;SDS011;8742;51.716;8.790;2022-07-01T14:26:58;7.17;;;2.03;;
17251;SDS011;8742;51.716;8.790;2022-07-01T14:29:25;3.40;;;1.70;;
17251;SDS011;8742;51.716;8.790;2022-07-01T14:31:52;7.87;;;1.93;;
17251;SDS011;8742;51.716;8.790;2022-07-01T14:34:19;2.00;;;1.80;;
17251;SDS011;8742;51.716;8.790;2022-07-01T14:36:48;2.17;;;1.60;;
17251;SDS011;8742;51.716;8.790;2022-07-01T14:39:15;4.07;;;1.80;;
17251;SDS011;8742;51.716;8.790;2022-07-01T14:41:42;3.50;;;1.80;;
17251;SDS011;8742;51.716;8.790;2022-07-01T14:44:14;5.23;;;2.00;;
17251;SDS011;8742;51.716;8.790;2022-07-01T14:46:41;3.27;;;1.40;;
17251;SDS011;8742;51.716;8.790;2022-07-01T14:49:08;4.80;;;2.00;;
17251;SDS011;8742;51.716;8.790;2022-07-01T14:51:35;2.43;;;1.70;;
17251;SDS011;8742;51.716;8.790;2022-07-01T14:54:03;3.87;;;1.70;;
17251;SDS011;8742;51.716;8.790;2022-07-01T14:56:30;2.93;;;1.90;;
17251;SDS011;8742;51.716;8.790;2022-07-01T14:58:57;2.50;;;1.73;;
17251;SDS011;8742;51.716;8.790;2022-07-01T15:01:24;5.17;;;1.80;;
17251;SDS011;8742;51.716;8.790;2022-07-01T15:03:51;2.65;;;1.80;;
17251;SDS011;8742;51.716;8.790;2022-07-01T15:06:18;2.53;;;1.65;;
17251;SDS011;8742;51.716;8.790;2022-07-01T15:08:45;3.83;;;1.65;;
17251;SDS011;8742;51.716;8.790;2022-07-01T15:11:13;3.10;;;1.65;;
17251;SDS011;8742;51.716;8.790;2022-07-01T15:13:40;6.85;;;1.90;;